sensor_id;sensor_type;location;lat;lon;timestamp;temperature;humidity
7216;DHT22;3649;48.798;9.798;2023-06-05T00:00:57;19.50;96.40
7216;DHT22;3649;48.798;9.798;2023-06-05T00:03:24;19.40;96.40
7216;DHT22;3649;48.798;9.798;2023-06-05T00:05:56;19.30;96.40
7216;DHT22;3649;48.798;9.798;2023-06-05T00:08:23;19.10;96.40
7216;DHT22;3649;48.798;9.798;2023-06-05T00:10:50;19.10;96.40
7216;DHT22;3649;48.798;9.798;2023-06-05T00:13:17;19.10;96.50
7216;DHT22;3649;48.798;9.798;2023-06-05T00:15:44;19.10;96.50
7216;DHT22;3649;48.798;9.798;2023-06-05T00:18:11;19.00;96.20
7216;DHT22;3649;48.798;9.798;2023-06-05T00:20:38;18.90;96.30
7216;DHT22;3649;48.798;9.798;2023-06-05T00:23:05;19.00;96.30
7216;DHT22;3649;48.798;9.798;2023-06-05T00:25:32;18.90;96.20
7216;DHT22;3649;48.798;9.798;2023-06-05T00:27:59;19.00;96.30
7216;DHT22;3649;48.798;9.798;2023-06-05T00:30:26;18.90;96.50
7216;DHT22;3649;48.798;9.798;2023-06-05T00:32:53;18.90;96.60
7216;DHT22;3649;48.798;9.798;2023-06-05T00:35:20;18.80;96.60
7216;DHT22;3649;48.798;9.798;2023-06-05T00:37:47;18.80;96.70
7216;DHT22;3649;48.798;9.798;2023-06-05T00:40:14;18.80;96.60
7216;DHT22;3649;48.798;9.798;2023-06-05T00:42:41;18.80;96.70
7216;DHT22;3649;48.798;9.798;2023-06-05T00:45:08;18.80;97.00
7216;DHT22;3649;48.798;9.798;2023-06-05T00:47:35;18.80;96.70
7216;DHT22;3649;48.798;9.798;2023-06-05T00:50:03;18.80;96.70
7216;DHT22;3649;48.798;9.798;2023-06-05T00:52:30;18.80;96.60
7216;DHT22;3649;48.798;9.798;2023-06-05T00:54:57;18.90;96.80
7216;DHT22;3649;48.798;9.798;2023-06-05T00:57:26;18.70;96.70
7216;DHT22;3649;48.798;9.798;2023-06-05T00:59:53;18.70;96.60
7216;DHT22;3649;48.798;9.798;2023-06-05T01:02:21;18.70;96.70
7216;DHT22;3649;48.798;9.798;2023-06-05T01:04:48;18.60;96.80
7216;DHT22;3649;48.798;9.798;2023-06-05T01:07:15;18.60;96.80
7216;DHT22;3649;48.798;9.798;2023-06-05T01:09:43;18.60;96.90
7216;DHT22;3649;48.798;9.798;2023-06-05T01:12:20;18.60;96.80
7216;DHT22;3649;48.798;9.798;2023-06-05T01:14:48;18.60;96.80
7216;DHT22;3649;48.798;9.798;2023-06-05T01:17:16;18.50;96.70
7216;DHT22;3649;48.798;9.798;2023-06-05T01:19:47;18.60;96.80
7216;DHT22;3649;48.798;9.798;2023-06-05T01:22:16;18.60;96.80
7216;DHT22;3649;48.798;9.798;2023-06-05T01:24:43;18.50;96.90
7216;DHT22;3649;48.798;9.798;2023-06-05T01:32:45;18.40;97.00
7216;DHT22;3649;48.798;9.798;2023-06-05T01:35:14;18.30;96.90
7216;DHT22;3649;48.798;9.798;2023-06-05T01:37:47;18.30;96.90
7216;DHT22;3649;48.798;9.798;2023-06-05T01:40:21;18.30;96.80
7216;DHT22;3649;48.798;9.798;2023-06-05T01:42:49;18.30;96.80
7216;DHT22;3649;48.798;9.798;2023-06-05T01:45:17;18.20;96.80
7216;DHT22;3649;48.798;9.798;2023-06-05T01:47:45;18.20;96.90
7216;DHT22;3649;48.798;9.798;2023-06-05T01:50:15;18.20;97.00
7216;DHT22;3649;48.798;9.798;2023-06-05T01:52:43;18.10;97.00
7216;DHT22;3649;48.798;9.798;2023-06-05T01:55:17;18.10;96.90
7216;DHT22;3649;48.798;9.798;2023-06-05T01:57:46;18.10;96.80
7216;DHT22;3649;48.798;9.798;2023-06-05T02:00:13;18.10;96.90
7216;DHT22;3649;48.798;9.798;2023-06-05T02:02:40;18.00;96.90
7216;DHT22;3649;48.798;9.798;2023-06-05T02:05:09;18.00;96.90
7216;DHT22;3649;48.798;9.798;2023-06-05T02:07:38;18.00;97.00
7216;DHT22;3649;48.798;9.798;2023-06-05T02:10:09;18.00;97.00
7216;DHT22;3649;48.798;9.798;2023-06-05T02:12:36;18.00;97.00
7216;DHT22;3649;48.798;9.798;2023-06-05T02:15:05;18.00;97.00
7216;DHT22;3649;48.798;9.798;2023-06-05T02:17:31;17.90;97.00
7216;DHT22;3649;48.798;9.798;2023-06-05T02:19:58;17.90;97.10
7216;DHT22;3649;48.798;9.798;2023-06-05T02:22:25;17.80;97.10
7216;DHT22;3649;48.798;9.798;2023-06-05T02:24:52;17.80;97.10
7216;DHT22;3649;48.798;9.798;2023-06-05T02:27:19;17.90;97.10
7216;DHT22;3649;48.798;9.798;2023-06-05T02:29:47;17.80;97.00
7216;DHT22;3649;48.798;9.798;2023-06-05T02:32:13;17.70;97.00
7216;DHT22;3649;48.798;9.798;2023-06-05T02:34:40;17.70;96.90
7216;DHT22;3649;48.798;9.798;2023-06-05T02:37:07;17.70;96.80
7216;DHT22;3649;48.798;9.798;2023-06-05T02:39:34;17.70;96.90
7216;DHT22;3649;48.798;9.798;2023-06-05T02:42:01;17.70;96.90
7216;DHT22;3649;48.798;9.798;2023-06-05T02:44:28;17.70;96.80
7216;DHT22;3649;48.798;9.798;2023-06-05T02:46:56;17.70;96.80
7216;DHT22;3649;48.798;9.798;2023-06-05T02:49:22;17.70;96.80
7216;DHT22;3649;48.798;9.798;2023-06-05T02:51:49;17.80;96.80
7216;DHT22;3649;48.798;9.798;2023-06-05T02:54:16;17.70;96.90
7216;DHT22;3649;48.798;9.798;2023-06-05T02:56:43;17.70;96.80
7216;DHT22;3649;48.798;9.798;2023-06-05T02:59:10;17.70;96.80
7216;DHT22;3649;48.798;9.798;2023-06-05T03:01:37;17.70;96.90
7216;DHT22;3649;48.798;9.798;2023-06-05T03:04:05;17.70;96.80
7216;DHT22;3649;48.798;9.798;2023-06-05T03:06:33;17.70;96.80
7216;DHT22;3649;48.798;9.798;2023-06-05T03:09:02;17.70;96.90
7216;DHT22;3649;48.798;9.798;2023-06-05T03:11:29;17.70;96.90
7216;DHT22;3649;48.798;9.798;2023-06-05T03:13:56;17.50;96.90
7216;DHT22;3649;48.798;9.798;2023-06-05T03:16:23;17.60;96.90
7216;DHT22;3649;48.798;9.798;2023-06-05T03:18:50;17.50;96.90
7216;DHT22;3649;48.798;9.798;2023-06-05T03:21:17;17.40;96.90
7216;DHT22;3649;48.798;9.798;2023-06-05T03:23:44;17.50;96.80
7216;DHT22;3649;48.798;9.798;2023-06-05T03:26:11;17.50;96.90
7216;DHT22;3649;48.798;9.798;2023-06-05T03:28:38;17.50;96.80
7216;DHT22;3649;48.798;9.798;2023-06-05T03:31:04;17.40;96.80
7216;DHT22;3649;48.798;9.798;2023-06-05T03:33:32;17.40;96.80
7216;DHT22;3649;48.798;9.798;2023-06-05T03:35:59;17.40;96.80
7216;DHT22;3649;48.798;9.798;2023-06-05T03:38:26;17.40;96.70
7216;DHT22;3649;48.798;9.798;2023-06-05T03:40:53;17.50;96.70
7216;DHT22;3649;48.798;9.798;2023-06-05T03:43:20;17.40;96.70
7216;DHT22;3649;48.798;9.798;2023-06-05T03:45:47;17.40;96.80
7216;DHT22;3649;48.798;9.798;2023-06-05T03:48:15;17.30;96.90
7216;DHT22;3649;48.798;9.798;2023-06-05T03:50:45;17.30;97.00
7216;DHT22;3649;48.798;9.798;2023-06-05T03:53:13;17.40;96.90
7216;DHT22;3649;48.798;9.798;2023-06-05T03:55:40;17.50;96.80
7216;DHT22;3649;48.798;9.798;2023-06-05T03:58:09;17.50;96.70
7216;DHT22;3649;48.798;9.798;2023-06-05T04:00:47;17.50;96.60
7216;DHT22;3649;48.798;9.798;2023-06-05T04:03:17;17.50;96.40
7216;DHT22;3649;48.798;9.798;2023-06-05T04:05:45;17.50;96.50
7216;DHT22;3649;48.798;9.798;2023-06-05T04:08:12;18.20;96.90
7216;DHT22;3649;48.798;9.798;2023-06-05T04:10:40;17.40;96.60
7216;DHT22;3649;48.798;9.798;2023-06-05T04:13:07;17.40;96.60
7216;DHT22;3649;48.798;9.798;2023-06-05T04:15:34;17.30;96.80
7216;DHT22;3649;48.798;9.798;2023-06-05T04:18:01;17.30;96.80
7216;DHT22;3649;48.798;9.798;2023-06-05T04:20:28;17.30;96.80
7216;DHT22;3649;48.798;9.798;2023-06-05T04:22:55;17.40;96.90
7216;DHT22;3649;48.798;9.798;2023-06-05T04:25:22;17.30;96.90
7216;DHT22;3649;48.798;9.798;2023-06-05T04:27:50;17.30;96.90
7216;DHT22;3649;48.798;9.798;2023-06-05T04:30:18;17.20;96.90
7216;DHT22;3649;48.798;9.798;2023-06-05T04:32:45;17.20;96.90
7216;DHT22;3649;48.798;9.798;2023-06-05T04:35:21;17.30;96.90
7216;DHT22;3649;48.798;9.798;2023-06-05T04:37:48;17.20;96.90
7216;DHT22;3649;48.798;9.798;2023-06-05T04:40:18;17.20;96.90
7216;DHT22;3649;48.798;9.798;2023-06-05T04:42:47;17.20;96.70
7216;DHT22;3649;48.798;9.798;2023-06-05T04:45:14;17.30;96.70
7216;DHT22;3649;48.798;9.798;2023-06-05T04:47:43;17.40;96.70
7216;DHT22;3649;48.798;9.798;2023-06-05T04:50:22;17.40;96.60
7216;DHT22;3649;48.798;9.798;2023-06-05T04:52:50;17.40;96.50
7216;DHT22;3649;48.798;9.798;2023-06-05T04:55:17;17.50;96.50
7216;DHT22;3649;48.798;9.798;2023-06-05T04:57:44;17.50;96.50
7216;DHT22;3649;48.798;9.798;2023-06-05T05:00:12;17.50;96.60
7216;DHT22;3649;48.798;9.798;2023-06-05T05:02:39;17.60;96.50
7216;DHT22;3649;48.798;9.798;2023-06-05T05:05:06;17.70;96.40
7216;DHT22;3649;48.798;9.798;2023-06-05T05:07:33;17.60;96.50
7216;DHT22;3649;48.798;9.798;2023-06-05T05:10:02;17.60;96.50
7216;DHT22;3649;48.798;9.798;2023-06-05T05:12:29;17.60;96.60
7216;DHT22;3649;48.798;9.798;2023-06-05T05:14:56;17.60;96.50
7216;DHT22;3649;48.798;9.798;2023-06-05T05:17:23;17.70;96.50
7216;DHT22;3649;48.798;9.798;2023-06-05T05:19:50;17.70;96.40
7216;DHT22;3649;48.798;9.798;2023-06-05T05:22:17;17.80;96.40
7216;DHT22;3649;48.798;9.798;2023-06-05T05:24:44;17.80;96.40
7216;DHT22;3649;48.798;9.798;2023-06-05T05:27:11;17.80;96.50
7216;DHT22;3649;48.798;9.798;2023-06-05T05:29:38;17.90;96.60
7216;DHT22;3649;48.798;9.798;2023-06-05T05:32:05;17.90;96.50
7216;DHT22;3649;48.798;9.798;2023-06-05T05:34:32;18.00;96.30
7216;DHT22;3649;48.798;9.798;2023-06-05T05:37:00;18.00;96.10
7216;DHT22;3649;48.798;9.798;2023-06-05T05:39:28;18.00;95.90
7216;DHT22;3649;48.798;9.798;2023-06-05T05:41:55;18.20;95.90
7216;DHT22;3649;48.798;9.798;2023-06-05T05:44:21;18.20;95.90
7216;DHT22;3649;48.798;9.798;2023-06-05T05:46:48;18.30;95.90
7216;DHT22;3649;48.798;9.798;2023-06-05T05:49:15;18.40;95.80
7216;DHT22;3649;48.798;9.798;2023-06-05T05:51:42;18.40;95.70
7216;DHT22;3649;48.798;9.798;2023-06-05T05:54:09;18.50;95.70
7216;DHT22;3649;48.798;9.798;2023-06-05T05:56:36;18.60;95.70
7216;DHT22;3649;48.798;9.798;2023-06-05T05:59:03;18.60;95.60
7216;DHT22;3649;48.798;9.798;2023-06-05T06:01:30;18.70;95.50
7216;DHT22;3649;48.798;9.798;2023-06-05T06:03:59;18.80;95.40
7216;DHT22;3649;48.798;9.798;2023-06-05T06:06:26;18.90;95.20
7216;DHT22;3649;48.798;9.798;2023-06-05T06:08:53;18.90;95.30
7216;DHT22;3649;48.798;9.798;2023-06-05T06:11:20;19.00;95.20
7216;DHT22;3649;48.798;9.798;2023-06-05T06:13:47;19.20;95.20
7216;DHT22;3649;48.798;9.798;2023-06-05T06:16:15;19.20;95.20
7216;DHT22;3649;48.798;9.798;2023-06-05T06:18:42;19.30;95.20
7216;DHT22;3649;48.798;9.798;2023-06-05T06:21:09;19.40;95.20
7216;DHT22;3649;48.798;9.798;2023-06-05T06:23:36;19.50;95.10
7216;DHT22;3649;48.798;9.798;2023-06-05T06:26:03;19.60;95.00
7216;DHT22;3649;48.798;9.798;2023-06-05T06:28:33;19.70;94.90
7216;DHT22;3649;48.798;9.798;2023-06-05T06:31:00;19.80;95.00
7216;DHT22;3649;48.798;9.798;2023-06-05T06:33:27;19.90;94.90
7216;DHT22;3649;48.798;9.798;2023-06-05T06:35:56;20.00;94.70
7216;DHT22;3649;48.798;9.798;2023-06-05T06:38:25;20.20;94.60
7216;DHT22;3649;48.798;9.798;2023-06-05T06:40:58;20.30;94.40
7216;DHT22;3649;48.798;9.798;2023-06-05T06:43:25;20.50;94.30
7216;DHT22;3649;48.798;9.798;2023-06-05T06:45:53;20.70;93.90
7216;DHT22;3649;48.798;9.798;2023-06-05T06:48:20;20.80;93.90
7216;DHT22;3649;48.798;9.798;2023-06-05T06:50:47;21.10;93.80
7216;DHT22;3649;48.798;9.798;2023-06-05T06:53:14;21.30;93.60
7216;DHT22;3649;48.798;9.798;2023-06-05T06:55:41;21.60;93.40
7216;DHT22;3649;48.798;9.798;2023-06-05T06:58:08;21.80;93.30
7216;DHT22;3649;48.798;9.798;2023-06-05T07:00:35;22.00;93.20
7216;DHT22;3649;48.798;9.798;2023-06-05T07:03:02;22.20;93.10
7216;DHT22;3649;48.798;9.798;2023-06-05T07:05:30;22.40;93.00
7216;DHT22;3649;48.798;9.798;2023-06-05T07:07:59;22.60;93.00
7216;DHT22;3649;48.798;9.798;2023-06-05T07:10:28;22.70;93.10
7216;DHT22;3649;48.798;9.798;2023-06-05T07:12:56;22.90;93.10
7216;DHT22;3649;48.798;9.798;2023-06-05T07:15:23;23.10;93.00
7216;DHT22;3649;48.798;9.798;2023-06-05T07:17:50;23.30;92.80
7216;DHT22;3649;48.798;9.798;2023-06-05T07:20:17;23.30;92.40
7216;DHT22;3649;48.798;9.798;2023-06-05T07:22:44;23.40;92.50
7216;DHT22;3649;48.798;9.798;2023-06-05T07:25:12;23.40;92.50
7216;DHT22;3649;48.798;9.798;2023-06-05T07:27:41;23.50;92.50
7216;DHT22;3649;48.798;9.798;2023-06-05T07:30:10;23.50;92.40
7216;DHT22;3649;48.798;9.798;2023-06-05T07:32:40;23.50;92.50
7216;DHT22;3649;48.798;9.798;2023-06-05T07:35:09;23.60;92.60
7216;DHT22;3649;48.798;9.798;2023-06-05T07:37:36;23.70;92.70
7216;DHT22;3649;48.798;9.798;2023-06-05T07:40:04;23.80;92.60
7216;DHT22;3649;48.798;9.798;2023-06-05T07:42:32;23.80;92.70
7216;DHT22;3649;48.798;9.798;2023-06-05T07:44:59;23.90;92.60
7216;DHT22;3649;48.798;9.798;2023-06-05T07:47:26;24.00;92.70
7216;DHT22;3649;48.798;9.798;2023-06-05T07:49:59;24.10;92.70
7216;DHT22;3649;48.798;9.798;2023-06-05T07:52:27;24.10;92.60
7216;DHT22;3649;48.798;9.798;2023-06-05T07:54:54;24.20;92.70
7216;DHT22;3649;48.798;9.798;2023-06-05T07:57:21;24.20;92.40
7216;DHT22;3649;48.798;9.798;2023-06-05T07:59:50;24.30;92.40
7216;DHT22;3649;48.798;9.798;2023-06-05T08:02:18;24.30;92.60
7216;DHT22;3649;48.798;9.798;2023-06-05T08:04:45;24.30;92.60
7216;DHT22;3649;48.798;9.798;2023-06-05T08:07:13;24.40;93.00
7216;DHT22;3649;48.798;9.798;2023-06-05T08:09:40;24.30;92.60
7216;DHT22;3649;48.798;9.798;2023-06-05T08:12:08;24.40;92.60
7216;DHT22;3649;48.798;9.798;2023-06-05T08:14:35;24.50;92.60
7216;DHT22;3649;48.798;9.798;2023-06-05T08:17:03;24.60;92.80
7216;DHT22;3649;48.798;9.798;2023-06-05T08:19:30;24.60;92.70
7216;DHT22;3649;48.798;9.798;2023-06-05T08:21:57;24.60;92.80
7216;DHT22;3649;48.798;9.798;2023-06-05T08:24:25;24.70;93.10
7216;DHT22;3649;48.798;9.798;2023-06-05T08:26:53;24.70;93.30
7216;DHT22;3649;48.798;9.798;2023-06-05T08:29:20;24.70;93.30
7216;DHT22;3649;48.798;9.798;2023-06-05T08:31:47;24.70;93.30
7216;DHT22;3649;48.798;9.798;2023-06-05T08:34:14;24.80;93.20
7216;DHT22;3649;48.798;9.798;2023-06-05T08:36:41;24.80;93.20
7216;DHT22;3649;48.798;9.798;2023-06-05T08:39:09;24.90;93.30
7216;DHT22;3649;48.798;9.798;2023-06-05T08:41:36;24.90;93.20
7216;DHT22;3649;48.798;9.798;2023-06-05T08:44:04;25.00;93.00
7216;DHT22;3649;48.798;9.798;2023-06-05T08:46:36;24.90;92.80
7216;DHT22;3649;48.798;9.798;2023-06-05T08:49:10;24.80;92.70
7216;DHT22;3649;48.798;9.798;2023-06-05T08:51:38;24.80;92.70
7216;DHT22;3649;48.798;9.798;2023-06-05T08:54:08;24.90;92.70
7216;DHT22;3649;48.798;9.798;2023-06-05T08:56:42;24.90;92.70
7216;DHT22;3649;48.798;9.798;2023-06-05T08:59:10;25.10;92.60
7216;DHT22;3649;48.798;9.798;2023-06-05T09:01:42;25.10;91.90
7216;DHT22;3649;48.798;9.798;2023-06-05T09:04:10;25.00;91.90
7216;DHT22;3649;48.798;9.798;2023-06-05T09:06:38;24.90;91.10
7216;DHT22;3649;48.798;9.798;2023-06-05T09:09:07;24.80;91.40
7216;DHT22;3649;48.798;9.798;2023-06-05T09:11:35;24.90;91.50
7216;DHT22;3649;48.798;9.798;2023-06-05T09:14:03;24.90;91.50
7216;DHT22;3649;48.798;9.798;2023-06-05T09:16:40;24.90;91.40
7216;DHT22;3649;48.798;9.798;2023-06-05T09:19:10;25.00;90.90
7216;DHT22;3649;48.798;9.798;2023-06-05T09:21:38;24.80;91.20
7216;DHT22;3649;48.798;9.798;2023-06-05T09:24:16;24.90;91.10
7216;DHT22;3649;48.798;9.798;2023-06-05T09:26:55;24.90;91.10
7216;DHT22;3649;48.798;9.798;2023-06-05T09:29:27;25.00;91.10
7216;DHT22;3649;48.798;9.798;2023-06-05T09:31:59;24.90;91.00
7216;DHT22;3649;48.798;9.798;2023-06-05T09:34:28;25.00;91.20
7216;DHT22;3649;48.798;9.798;2023-06-05T09:36:59;25.00;91.30
7216;DHT22;3649;48.798;9.798;2023-06-05T09:39:29;25.00;91.50
7216;DHT22;3649;48.798;9.798;2023-06-05T09:41:58;25.00;91.40
7216;DHT22;3649;48.798;9.798;2023-06-05T09:44:26;25.00;90.80
7216;DHT22;3649;48.798;9.798;2023-06-05T09:47:06;25.00;90.70
7216;DHT22;3649;48.798;9.798;2023-06-05T09:52:10;24.90;90.60
7216;DHT22;3649;48.798;9.798;2023-06-05T09:54:39;24.90;90.40
7216;DHT22;3649;48.798;9.798;2023-06-05T09:57:07;24.90;89.60
7216;DHT22;3649;48.798;9.798;2023-06-05T10:02:12;24.90;88.50
7216;DHT22;3649;48.798;9.798;2023-06-05T10:04:54;24.90;89.20
7216;DHT22;3649;48.798;9.798;2023-06-05T10:07:24;24.90;86.80
7216;DHT22;3649;48.798;9.798;2023-06-05T10:09:51;24.90;84.50
7216;DHT22;3649;48.798;9.798;2023-06-05T10:12:19;24.80;85.20
7216;DHT22;3649;48.798;9.798;2023-06-05T10:14:49;24.90;85.60
7216;DHT22;3649;48.798;9.798;2023-06-05T10:17:17;24.80;85.70
7216;DHT22;3649;48.798;9.798;2023-06-05T10:19:44;24.80;86.10
7216;DHT22;3649;48.798;9.798;2023-06-05T10:22:13;24.80;85.60
7216;DHT22;3649;48.798;9.798;2023-06-05T10:24:46;24.80;85.30
7216;DHT22;3649;48.798;9.798;2023-06-05T10:27:24;24.90;85.40
7216;DHT22;3649;48.798;9.798;2023-06-05T10:30:08;24.90;85.30
7216;DHT22;3649;48.798;9.798;2023-06-05T10:40:58;24.90;88.00
7216;DHT22;3649;48.798;9.798;2023-06-05T10:43:33;24.90;88.40
7216;DHT22;3649;48.798;9.798;2023-06-05T10:46:27;24.90;88.40
7216;DHT22;3649;48.798;9.798;2023-06-05T10:54:08;24.70;88.70
7216;DHT22;3649;48.798;9.798;2023-06-05T10:59:19;24.70;89.20
7216;DHT22;3649;48.798;9.798;2023-06-05T11:07:29;24.70;87.90
7216;DHT22;3649;48.798;9.798;2023-06-05T11:10:18;24.70;88.30
7216;DHT22;3649;48.798;9.798;2023-06-05T11:18:33;24.60;88.00
7216;DHT22;3649;48.798;9.798;2023-06-05T11:21:01;24.60;88.00
7216;DHT22;3649;48.798;9.798;2023-06-05T11:23:28;24.60;88.50
7216;DHT22;3649;48.798;9.798;2023-06-05T11:25:57;24.60;88.00
7216;DHT22;3649;48.798;9.798;2023-06-05T11:28:42;24.60;87.90
7216;DHT22;3649;48.798;9.798;2023-06-05T11:31:09;24.70;87.60
7216;DHT22;3649;48.798;9.798;2023-06-05T11:33:37;24.70;88.10
7216;DHT22;3649;48.798;9.798;2023-06-05T11:36:06;24.80;88.00
7216;DHT22;3649;48.798;9.798;2023-06-05T11:38:37;24.70;88.80
7216;DHT22;3649;48.798;9.798;2023-06-05T11:41:08;24.70;88.00
7216;DHT22;3649;48.798;9.798;2023-06-05T11:43:41;24.60;88.20
7216;DHT22;3649;48.798;9.798;2023-06-05T11:46:09;24.60;88.10
7216;DHT22;3649;48.798;9.798;2023-06-05T11:48:43;24.60;88.40
7216;DHT22;3649;48.798;9.798;2023-06-05T11:51:10;24.60;88.20
7216;DHT22;3649;48.798;9.798;2023-06-05T11:53:44;24.60;88.40
7216;DHT22;3649;48.798;9.798;2023-06-05T11:56:13;24.70;88.20
7216;DHT22;3649;48.798;9.798;2023-06-05T11:58:44;24.70;88.50
7216;DHT22;3649;48.798;9.798;2023-06-05T12:01:17;24.70;90.00
7216;DHT22;3649;48.798;9.798;2023-06-05T12:03:45;24.70;89.60
7216;DHT22;3649;48.798;9.798;2023-06-05T12:06:15;24.70;90.00
7216;DHT22;3649;48.798;9.798;2023-06-05T12:08:45;24.70;89.70
7216;DHT22;3649;48.798;9.798;2023-06-05T12:11:26;24.80;89.60
7216;DHT22;3649;48.798;9.798;2023-06-05T12:13:54;24.80;89.70
7216;DHT22;3649;48.798;9.798;2023-06-05T12:16:35;24.90;89.50
7216;DHT22;3649;48.798;9.798;2023-06-05T12:19:18;24.90;88.30
7216;DHT22;3649;48.798;9.798;2023-06-05T12:21:47;25.00;88.00
7216;DHT22;3649;48.798;9.798;2023-06-05T12:24:15;25.00;88.20
7216;DHT22;3649;48.798;9.798;2023-06-05T12:26:52;25.00;88.30
7216;DHT22;3649;48.798;9.798;2023-06-05T12:29:27;25.00;88.50
7216;DHT22;3649;48.798;9.798;2023-06-05T12:31:59;25.00;88.50
7216;DHT22;3649;48.798;9.798;2023-06-05T12:37:43;25.00;87.50
7216;DHT22;3649;48.798;9.798;2023-06-05T12:40:12;24.90;87.40
7216;DHT22;3649;48.798;9.798;2023-06-05T12:42:54;25.00;88.50
7216;DHT22;3649;48.798;9.798;2023-06-05T12:45:22;25.10;88.20
7216;DHT22;3649;48.798;9.798;2023-06-05T12:47:49;25.10;87.40
7216;DHT22;3649;48.798;9.798;2023-06-05T12:50:18;25.10;90.00
7216;DHT22;3649;48.798;9.798;2023-06-05T12:52:46;25.10;88.30
7216;DHT22;3649;48.798;9.798;2023-06-05T12:55:13;25.10;88.30
7216;DHT22;3649;48.798;9.798;2023-06-05T12:57:40;25.20;87.10
7216;DHT22;3649;48.798;9.798;2023-06-05T13:00:07;25.20;86.90
7216;DHT22;3649;48.798;9.798;2023-06-05T13:02:44;25.20;87.00
7216;DHT22;3649;48.798;9.798;2023-06-05T13:05:13;25.30;85.70
7216;DHT22;3649;48.798;9.798;2023-06-05T13:07:40;25.40;86.50
7216;DHT22;3649;48.798;9.798;2023-06-05T13:10:09;25.30;86.20
7216;DHT22;3649;48.798;9.798;2023-06-05T13:12:38;25.30;86.70
7216;DHT22;3649;48.798;9.798;2023-06-05T13:15:05;25.30;86.40
7216;DHT22;3649;48.798;9.798;2023-06-05T13:17:34;25.30;85.00
7216;DHT22;3649;48.798;9.798;2023-06-05T13:20:03;25.20;85.10
7216;DHT22;3649;48.798;9.798;2023-06-05T13:22:34;25.20;85.00
7216;DHT22;3649;48.798;9.798;2023-06-05T13:25:02;25.30;85.40
7216;DHT22;3649;48.798;9.798;2023-06-05T13:27:29;25.30;85.60
7216;DHT22;3649;48.798;9.798;2023-06-05T13:29:56;25.30;86.00
7216;DHT22;3649;48.798;9.798;2023-06-05T13:32:23;25.40;83.00
7216;DHT22;3649;48.798;9.798;2023-06-05T13:34:50;25.50;83.40
7216;DHT22;3649;48.798;9.798;2023-06-05T13:37:17;25.60;84.20
7216;DHT22;3649;48.798;9.798;2023-06-05T13:39:45;25.70;84.10
7216;DHT22;3649;48.798;9.798;2023-06-05T13:42:11;25.80;84.20
7216;DHT22;3649;48.798;9.798;2023-06-05T13:44:38;25.80;83.70
7216;DHT22;3649;48.798;9.798;2023-06-05T13:47:05;25.80;83.70
7216;DHT22;3649;48.798;9.798;2023-06-05T13:49:35;25.70;83.70
7216;DHT22;3649;48.798;9.798;2023-06-05T13:52:02;25.70;83.40
7216;DHT22;3649;48.798;9.798;2023-06-05T13:54:29;25.70;82.20
7216;DHT22;3649;48.798;9.798;2023-06-05T13:56:56;25.70;82.30
7216;DHT22;3649;48.798;9.798;2023-06-05T13:59:26;25.80;83.00
7216;DHT22;3649;48.798;9.798;2023-06-05T14:01:53;25.70;83.00
7216;DHT22;3649;48.798;9.798;2023-06-05T14:04:20;25.70;83.90
7216;DHT22;3649;48.798;9.798;2023-06-05T14:06:47;25.70;84.00
7216;DHT22;3649;48.798;9.798;2023-06-05T14:09:14;25.70;83.40
7216;DHT22;3649;48.798;9.798;2023-06-05T14:11:41;25.70;82.90
7216;DHT22;3649;48.798;9.798;2023-06-05T14:14:11;25.90;83.60
7216;DHT22;3649;48.798;9.798;2023-06-05T14:16:38;26.00;83.80
7216;DHT22;3649;48.798;9.798;2023-06-05T14:19:05;26.00;81.10
7216;DHT22;3649;48.798;9.798;2023-06-05T14:21:32;25.90;81.50
7216;DHT22;3649;48.798;9.798;2023-06-05T14:23:59;25.90;82.10
7216;DHT22;3649;48.798;9.798;2023-06-05T14:26:26;25.90;82.40
7216;DHT22;3649;48.798;9.798;2023-06-05T14:28:55;25.90;81.80
7216;DHT22;3649;48.798;9.798;2023-06-05T14:31:22;25.90;82.50
7216;DHT22;3649;48.798;9.798;2023-06-05T14:33:52;25.90;82.70
7216;DHT22;3649;48.798;9.798;2023-06-05T14:36:19;26.00;82.10
7216;DHT22;3649;48.798;9.798;2023-06-05T14:38:46;25.90;82.40
7216;DHT22;3649;48.798;9.798;2023-06-05T14:41:13;26.00;81.40
7216;DHT22;3649;48.798;9.798;2023-06-05T14:43:40;26.00;81.50
7216;DHT22;3649;48.798;9.798;2023-06-05T14:46:07;26.00;82.10
7216;DHT22;3649;48.798;9.798;2023-06-05T14:48:34;26.00;82.60
7216;DHT22;3649;48.798;9.798;2023-06-05T14:51:01;26.00;83.50
7216;DHT22;3649;48.798;9.798;2023-06-05T14:53:29;26.00;82.80
7216;DHT22;3649;48.798;9.798;2023-06-05T14:55:56;25.90;83.10
7216;DHT22;3649;48.798;9.798;2023-06-05T14:58:23;25.90;82.90
7216;DHT22;3649;48.798;9.798;2023-06-05T15:00:50;25.90;82.50
7216;DHT22;3649;48.798;9.798;2023-06-05T15:03:23;25.80;82.10
7216;DHT22;3649;48.798;9.798;2023-06-05T15:05:50;25.90;82.10
7216;DHT22;3649;48.798;9.798;2023-06-05T15:08:19;25.90;82.20
7216;DHT22;3649;48.798;9.798;2023-06-05T15:10:49;25.80;81.10
7216;DHT22;3649;48.798;9.798;2023-06-05T15:13:16;25.80;81.20
7216;DHT22;3649;48.798;9.798;2023-06-05T15:15:44;25.80;82.30
7216;DHT22;3649;48.798;9.798;2023-06-05T15:18:11;25.80;82.00
7216;DHT22;3649;48.798;9.798;2023-06-05T15:20:37;25.80;82.10
7216;DHT22;3649;48.798;9.798;2023-06-05T15:23:04;25.70;81.30
7216;DHT22;3649;48.798;9.798;2023-06-05T15:25:42;25.70;81.60
7216;DHT22;3649;48.798;9.798;2023-06-05T15:28:09;25.70;80.60
7216;DHT22;3649;48.798;9.798;2023-06-05T15:30:36;25.80;81.10
7216;DHT22;3649;48.798;9.798;2023-06-05T15:33:03;25.80;81.20
7216;DHT22;3649;48.798;9.798;2023-06-05T15:35:30;25.80;81.80
7216;DHT22;3649;48.798;9.798;2023-06-05T15:37:57;25.70;81.90
7216;DHT22;3649;48.798;9.798;2023-06-05T15:40:25;25.70;81.70
7216;DHT22;3649;48.798;9.798;2023-06-05T15:43:09;25.70;81.80
7216;DHT22;3649;48.798;9.798;2023-06-05T15:45:38;25.70;81.80
7216;DHT22;3649;48.798;9.798;2023-06-05T15:48:06;25.70;82.00
7216;DHT22;3649;48.798;9.798;2023-06-05T15:50:33;25.80;82.10
7216;DHT22;3649;48.798;9.798;2023-06-05T15:53:00;25.80;81.30
7216;DHT22;3649;48.798;9.798;2023-06-05T15:55:27;25.80;82.10
7216;DHT22;3649;48.798;9.798;2023-06-05T15:57:54;25.80;82.40
7216;DHT22;3649;48.798;9.798;2023-06-05T16:00:22;25.80;82.60
7216;DHT22;3649;48.798;9.798;2023-06-05T16:02:52;25.80;82.50
7216;DHT22;3649;48.798;9.798;2023-06-05T16:05:20;25.80;82.00
7216;DHT22;3649;48.798;9.798;2023-06-05T16:07:48;25.90;82.60
7216;DHT22;3649;48.798;9.798;2023-06-05T16:10:16;25.90;83.10
7216;DHT22;3649;48.798;9.798;2023-06-05T16:12:44;25.80;83.80
7216;DHT22;3649;48.798;9.798;2023-06-05T16:15:11;25.80;84.20
7216;DHT22;3649;48.798;9.798;2023-06-05T16:17:39;25.70;84.50
7216;DHT22;3649;48.798;9.798;2023-06-05T16:20:07;25.60;84.30
7216;DHT22;3649;48.798;9.798;2023-06-05T16:22:35;25.60;84.50
7216;DHT22;3649;48.798;9.798;2023-06-05T16:25:03;25.60;83.90
7216;DHT22;3649;48.798;9.798;2023-06-05T16:27:30;25.60;82.90
7216;DHT22;3649;48.798;9.798;2023-06-05T16:29:57;25.60;83.40
7216;DHT22;3649;48.798;9.798;2023-06-05T16:32:25;25.60;83.80
7216;DHT22;3649;48.798;9.798;2023-06-05T16:34:52;25.60;83.30
7216;DHT22;3649;48.798;9.798;2023-06-05T16:37:21;25.60;83.20
7216;DHT22;3649;48.798;9.798;2023-06-05T16:39:48;25.70;83.40
7216;DHT22;3649;48.798;9.798;2023-06-05T16:42:16;25.70;83.90
7216;DHT22;3649;48.798;9.798;2023-06-05T16:44:43;26.10;85.00
7216;DHT22;3649;48.798;9.798;2023-06-05T16:47:10;25.70;85.50
7216;DHT22;3649;48.798;9.798;2023-06-05T16:49:37;25.60;85.80
7216;DHT22;3649;48.798;9.798;2023-06-05T16:52:04;25.50;86.30